createdAt,value
2022-12-31T00:01:46.814Z,8.84
2022-12-31T00:04:14.308Z,8.93
2022-12-31T00:06:41.787Z,8.87
2022-12-31T00:09:09.546Z,8.86
2022-12-31T00:11:37.272Z,8.85
2022-12-31T00:14:06.360Z,8.96
2022-12-31T00:16:36.480Z,8.85
2022-12-31T00:19:05.168Z,8.86
2022-12-31T00:21:34.218Z,8.85
2022-12-31T00:24:02.605Z,8.83
2022-12-31T00:26:34.553Z,8.79
2022-12-31T00:29:04.902Z,8.79
2022-12-31T00:31:35.143Z,8.73
2022-12-31T00:34:02.892Z,8.81
2022-12-31T00:36:31.498Z,8.78
2022-12-31T00:39:00.034Z,8.78
2022-12-31T00:41:28.285Z,8.87
2022-12-31T00:43:56.124Z,8.91
2022-12-31T00:46:23.901Z,8.97
2022-12-31T00:48:52.748Z,8.97
2022-12-31T00:51:21.839Z,9.05
2022-12-31T00:53:49.418Z,9.23
2022-12-31T00:56:18.122Z,9.16
2022-12-31T00:58:45.651Z,9.25
2022-12-31T01:01:15.551Z,9.28
2022-12-31T01:03:43.181Z,9.16
2022-12-31T01:06:12.411Z,9.42
2022-12-31T01:08:39.881Z,9.28
2022-12-31T01:11:23.065Z,9.29
2022-12-31T01:13:52.909Z,9.34
2022-12-31T01:16:22.124Z,9.70
2022-12-31T01:18:49.764Z,9.41
2022-12-31T01:21:19.262Z,9.39
2022-12-31T01:23:46.775Z,9.44
2022-12-31T01:26:16.008Z,9.57
2022-12-31T01:28:43.635Z,9.47
2022-12-31T01:31:13.142Z,9.76
2022-12-31T01:33:41.351Z,9.55
2022-12-31T01:36:11.319Z,9.44
2022-12-31T01:38:40.743Z,9.37
2022-12-31T01:41:08.645Z,9.18
2022-12-31T01:43:45.421Z,9.13
2022-12-31T01:46:15.025Z,9.17
2022-12-31T01:48:42.856Z,9.35
2022-12-31T01:51:11.252Z,9.27
2022-12-31T01:53:41.075Z,9.34
2022-12-31T01:56:08.732Z,9.38
2022-12-31T01:58:38.127Z,9.45
2022-12-31T02:01:06.537Z,9.58
2022-12-31T02:03:34.057Z,9.52
2022-12-31T02:06:06.587Z,9.44
2022-12-31T02:08:39.928Z,9.55
2022-12-31T02:11:27.038Z,9.62
2022-12-31T02:13:58.608Z,9.49
2022-12-31T02:16:32.439Z,9.67
2022-12-31T02:19:05.683Z,9.59
2022-12-31T02:21:57.960Z,9.65
2022-12-31T02:25:03.079Z,10.07
2022-12-31T02:27:42.580Z,9.58
2022-12-31T02:30:16.366Z,9.59
2022-12-31T02:32:54.936Z,9.53
2022-12-31T02:35:26.243Z,9.59
2022-12-31T02:38:00.971Z,9.50
2022-12-31T02:40:28.565Z,9.41
2022-12-31T02:42:56.050Z,9.50
2022-12-31T02:45:28.863Z,9.41
2022-12-31T02:48:01.478Z,9.27
2022-12-31T02:50:34.228Z,9.21
2022-12-31T02:53:10.687Z,9.12
2022-12-31T02:55:42.056Z,9.01
2022-12-31T02:58:14.385Z,9.07
2022-12-31T03:01:04.317Z,9.12
2022-12-31T03:03:32.207Z,9.17
2022-12-31T03:06:00.212Z,9.30
2022-12-31T03:08:27.910Z,9.32
2022-12-31T03:10:56.934Z,9.39
2022-12-31T03:13:23.747Z,9.47
2022-12-31T03:15:52.560Z,9.41
2022-12-31T03:18:40.901Z,9.38
2022-12-31T03:21:31.013Z,9.38
2022-12-31T03:24:16.346Z,9.36
2022-12-31T03:26:43.833Z,9.35
2022-12-31T03:29:11.273Z,9.46
2022-12-31T03:31:40.133Z,9.46
2022-12-31T03:34:07.598Z,9.65
2022-12-31T03:36:35.231Z,9.65
2022-12-31T03:39:02.688Z,9.69
2022-12-31T03:41:30.161Z,9.65
2022-12-31T03:43:57.604Z,9.70
2022-12-31T03:46:25.079Z,9.77
2022-12-31T03:48:53.889Z,9.76
2022-12-31T03:51:21.354Z,9.86
2022-12-31T03:53:48.817Z,9.83
2022-12-31T03:56:16.291Z,9.88
2022-12-31T03:58:43.863Z,9.75
2022-12-31T04:01:11.530Z,9.76
2022-12-31T04:03:39.041Z,9.87
2022-12-31T04:06:08.128Z,9.90
2022-12-31T04:08:35.570Z,9.88
2022-12-31T04:11:04.435Z,9.89
2022-12-31T04:13:31.886Z,9.82
2022-12-31T04:15:59.430Z,9.96
2022-12-31T04:18:26.939Z,10.00
2022-12-31T04:20:54.423Z,9.96
2022-12-31T04:23:23.208Z,10.02
2022-12-31T04:25:50.677Z,9.98
2022-12-31T04:28:18.183Z,9.97
2022-12-31T04:30:45.688Z,10.01
2022-12-31T04:33:13.229Z,9.99
2022-12-31T04:35:40.697Z,10.03
2022-12-31T04:38:08.191Z,10.05
2022-12-31T04:40:56.956Z,10.10
2022-12-31T04:43:24.464Z,10.12
2022-12-31T04:45:51.955Z,10.19
2022-12-31T04:48:19.463Z,10.24
2022-12-31T04:50:47.272Z,10.22
2022-12-31T04:53:14.805Z,10.23
2022-12-31T04:55:43.617Z,10.21
2022-12-31T04:58:11.125Z,10.26
2022-12-31T05:00:38.638Z,10.31
2022-12-31T05:03:06.136Z,10.33
2022-12-31T05:05:33.645Z,10.40
2022-12-31T05:08:01.151Z,10.36
2022-12-31T05:10:29.370Z,10.38
2022-12-31T05:12:58.178Z,10.51
2022-12-31T05:15:25.636Z,10.44
2022-12-31T05:17:53.140Z,10.50
2022-12-31T05:20:20.612Z,10.61
2022-12-31T05:22:48.087Z,10.67
2022-12-31T05:25:15.850Z,10.81
2022-12-31T05:27:43.452Z,10.88
2022-12-31T05:30:13.168Z,10.86
2022-12-31T05:32:41.156Z,10.94
2022-12-31T05:35:09.248Z,10.93
2022-12-31T05:37:36.733Z,11.21
2022-12-31T05:40:04.935Z,11.00
2022-12-31T05:42:32.448Z,11.27
2022-12-31T05:44:59.916Z,11.22
2022-12-31T05:47:29.697Z,11.13
2022-12-31T05:49:57.162Z,11.26
2022-12-31T05:52:24.645Z,11.23
2022-12-31T05:54:52.134Z,11.35
2022-12-31T05:57:19.669Z,11.39
2022-12-31T05:59:47.157Z,11.51
2022-12-31T06:02:14.766Z,11.64
2022-12-31T06:04:43.576Z,11.59
2022-12-31T06:07:11.090Z,11.68
2022-12-31T06:09:38.616Z,11.82
2022-12-31T06:12:06.828Z,11.51
2022-12-31T06:14:34.387Z,11.58
2022-12-31T06:17:02.164Z,11.79
2022-12-31T06:19:30.191Z,11.87
2022-12-31T06:21:59.016Z,11.86
2022-12-31T06:24:26.521Z,11.84
2022-12-31T06:26:54.027Z,11.75
2022-12-31T06:29:21.560Z,11.80
2022-12-31T06:31:49.059Z,11.96
2022-12-31T06:34:16.519Z,11.94
2022-12-31T06:36:44.000Z,11.96
2022-12-31T06:39:12.817Z,12.06
2022-12-31T06:41:40.314Z,12.04
2022-12-31T06:44:07.863Z,11.98
2022-12-31T06:46:35.441Z,12.01
2022-12-31T06:49:03.000Z,12.07
2022-12-31T06:51:30.500Z,12.08
2022-12-31T06:53:57.961Z,12.08
2022-12-31T06:56:34.003Z,12.19
2022-12-31T06:59:03.141Z,12.27
2022-12-31T07:01:47.464Z,12.28
2022-12-31T07:04:36.133Z,12.31
2022-12-31T07:07:08.805Z,12.30
2022-12-31T07:09:38.310Z,12.37
2022-12-31T07:12:12.598Z,12.42
2022-12-31T07:14:44.267Z,12.42
2022-12-31T07:17:21.847Z,12.44
2022-12-31T07:19:57.874Z,12.43
2022-12-31T07:22:26.046Z,12.48
2022-12-31T07:24:54.160Z,12.41
2022-12-31T07:27:36.000Z,12.55
2022-12-31T07:30:06.241Z,12.43
2022-12-31T07:32:57.599Z,12.47
2022-12-31T07:35:34.943Z,12.33
2022-12-31T07:38:07.242Z,12.41
2022-12-31T07:40:39.459Z,12.38
2022-12-31T07:43:12.752Z,12.34
2022-12-31T07:45:44.947Z,12.38
2022-12-31T07:48:22.427Z,12.40
2022-12-31T07:50:50.218Z,12.57
2022-12-31T07:53:18.385Z,12.62
2022-12-31T07:55:45.890Z,12.53
2022-12-31T07:58:21.377Z,12.58
2022-12-31T08:00:49.254Z,12.56
2022-12-31T08:03:27.773Z,12.71
2022-12-31T08:06:01.934Z,12.86
2022-12-31T08:08:36.833Z,12.67
2022-12-31T08:11:10.959Z,12.74
2022-12-31T08:13:40.139Z,12.79
2022-12-31T08:16:11.088Z,12.91
2022-12-31T08:18:39.082Z,12.89
2022-12-31T08:21:15.619Z,12.93
2022-12-31T08:23:48.948Z,12.89
2022-12-31T08:26:24.712Z,12.98
2022-12-31T08:29:02.278Z,12.98
2022-12-31T08:31:36.169Z,13.01
2022-12-31T08:34:09.645Z,13.12
2022-12-31T08:36:45.401Z,13.03
2022-12-31T08:39:19.678Z,12.98
2022-12-31T08:41:49.326Z,13.04
2022-12-31T08:44:24.002Z,13.09
2022-12-31T08:46:56.458Z,13.12
2022-12-31T08:49:27.645Z,13.20
2022-12-31T08:51:55.647Z,13.22
2022-12-31T08:54:23.601Z,13.15
2022-12-31T08:57:04.844Z,13.22
2022-12-31T08:59:40.633Z,13.17
2022-12-31T09:02:49.653Z,13.27
2022-12-31T09:05:21.703Z,13.37
2022-12-31T09:07:52.783Z,13.30
2022-12-31T09:10:24.622Z,13.21
2022-12-31T09:12:59.149Z,13.28
2022-12-31T09:15:31.550Z,13.39
2022-12-31T09:17:59.594Z,13.40
2022-12-31T09:20:41.795Z,13.45
2022-12-31T09:23:12.086Z,13.44
2022-12-31T09:25:44.047Z,13.50
2022-12-31T09:28:16.573Z,13.56
2022-12-31T09:30:51.549Z,13.45
2022-12-31T09:33:31.167Z,13.54
2022-12-31T09:36:00.286Z,13.68
2022-12-31T09:38:32.217Z,13.48
2022-12-31T09:41:14.328Z,13.52
2022-12-31T09:44:15.447Z,13.60
2022-12-31T09:47:08.697Z,13.57
2022-12-31T09:50:28.042Z,13.65
2022-12-31T09:53:05.178Z,13.60
2022-12-31T09:55:37.880Z,13.66
2022-12-31T09:58:08.947Z,13.66
2022-12-31T10:00:40.278Z,13.58
2022-12-31T10:03:33.322Z,13.64
2022-12-31T10:06:05.470Z,13.75
2022-12-31T10:08:51.050Z,13.65
2022-12-31T10:11:25.301Z,13.67
2022-12-31T10:14:08.938Z,13.72
2022-12-31T10:16:49.657Z,13.72
2022-12-31T10:19:53.483Z,13.77
2022-12-31T10:22:44.950Z,13.81
2022-12-31T10:25:39.727Z,13.93
2022-12-31T10:28:16.453Z,13.82
2022-12-31T10:30:50.271Z,13.98
2022-12-31T10:33:21.013Z,13.88
2022-12-31T10:35:54.756Z,14.02
2022-12-31T10:38:28.368Z,14.08
2022-12-31T10:41:32.363Z,14.12
2022-12-31T10:44:20.929Z,14.03
2022-12-31T10:47:05.788Z,14.23
2022-12-31T10:50:05.178Z,14.16
2022-12-31T10:53:03.128Z,14.08
2022-12-31T10:56:16.189Z,14.15
2022-12-31T10:59:10.108Z,14.26
2022-12-31T11:01:49.167Z,14.18
2022-12-31T11:04:53.253Z,14.12
2022-12-31T11:07:56.088Z,14.11
2022-12-31T11:10:58.973Z,14.23
2022-12-31T11:13:59.125Z,14.33
2022-12-31T11:16:39.312Z,14.19
2022-12-31T11:19:13.705Z,14.18
2022-12-31T11:21:55.096Z,14.30
2022-12-31T11:24:31.967Z,14.26
2022-12-31T11:27:10.040Z,14.30
2022-12-31T11:29:47.011Z,14.28
2022-12-31T11:32:23.451Z,14.34
2022-12-31T11:35:30.053Z,14.30
2022-12-31T11:38:04.716Z,14.27
2022-12-31T11:40:38.234Z,14.33
2022-12-31T11:43:16.165Z,14.38
2022-12-31T11:45:55.212Z,14.48
2022-12-31T11:48:31.336Z,14.41
2022-12-31T11:51:11.024Z,14.44
2022-12-31T11:53:57.388Z,14.47
2022-12-31T11:56:28.280Z,14.47
2022-12-31T11:58:57.414Z,14.47
2022-12-31T12:01:28.456Z,14.42
2022-12-31T12:03:56.487Z,14.40
2022-12-31T12:06:26.457Z,14.44
2022-12-31T12:08:54.654Z,14.53
2022-12-31T12:11:25.750Z,14.54
2022-12-31T12:13:53.259Z,14.53
2022-12-31T12:16:22.982Z,14.51
2022-12-31T12:18:52.109Z,14.57
2022-12-31T12:21:22.015Z,14.67
2022-12-31T12:23:57.078Z,14.65
2022-12-31T12:26:29.991Z,14.61
2022-12-31T12:29:01.190Z,14.66
2022-12-31T12:31:30.560Z,14.64
2022-12-31T12:33:58.309Z,14.70
2022-12-31T12:36:27.296Z,14.84
2022-12-31T12:39:02.410Z,14.68
2022-12-31T12:41:29.965Z,14.67
2022-12-31T12:44:05.759Z,14.68
2022-12-31T12:46:36.889Z,14.69
2022-12-31T12:49:05.084Z,14.63
2022-12-31T12:51:46.566Z,14.70
2022-12-31T12:54:24.575Z,14.80
2022-12-31T12:56:59.288Z,14.75
2022-12-31T12:59:50.781Z,14.68
2022-12-31T13:02:36.387Z,14.87
2022-12-31T13:05:14.805Z,14.89
2022-12-31T13:07:51.850Z,14.94
2022-12-31T13:10:30.944Z,14.91
2022-12-31T13:13:23.493Z,14.90
2022-12-31T13:15:56.129Z,14.93
2022-12-31T13:18:34.017Z,14.92
2022-12-31T13:21:18.426Z,14.92
2022-12-31T13:23:50.791Z,14.90
2022-12-31T13:26:23.443Z,14.95
2022-12-31T13:28:53.555Z,14.91
2022-12-31T13:31:25.996Z,14.76
2022-12-31T13:33:57.370Z,14.87
2022-12-31T13:36:26.710Z,14.85
2022-12-31T13:38:55.669Z,14.73
2022-12-31T13:41:27.219Z,14.80
2022-12-31T13:43:59.280Z,14.92
2022-12-31T13:46:35.771Z,14.74
2022-12-31T13:49:06.889Z,14.76
2022-12-31T13:51:41.790Z,14.70
2022-12-31T13:54:18.571Z,14.75
2022-12-31T13:56:46.495Z,14.78
2022-12-31T13:59:17.170Z,14.78
2022-12-31T14:01:49.351Z,14.70
2022-12-31T14:04:20.694Z,14.70
2022-12-31T14:06:56.753Z,14.68
2022-12-31T14:09:26.359Z,14.64
2022-12-31T14:12:10.410Z,14.67
2022-12-31T14:14:44.147Z,14.69
2022-12-31T14:17:18.747Z,14.68
2022-12-31T14:19:55.492Z,14.72
2022-12-31T14:22:30.472Z,14.66
2022-12-31T14:24:59.936Z,14.65
2022-12-31T14:27:30.010Z,14.68
2022-12-31T14:30:00.069Z,14.73
2022-12-31T14:32:40.655Z,14.73
2022-12-31T14:35:23.897Z,14.66
2022-12-31T14:37:58.172Z,14.71
2022-12-31T14:40:28.313Z,14.83
2022-12-31T14:43:02.791Z,14.63
2022-12-31T14:45:41.241Z,14.63
2022-12-31T14:48:21.844Z,14.67
2022-12-31T14:50:51.187Z,14.56
2022-12-31T14:53:22.615Z,14.61
2022-12-31T14:55:58.097Z,14.51
2022-12-31T14:58:32.023Z,14.59
2022-12-31T15:01:00.668Z,14.54
2022-12-31T15:03:39.996Z,14.49
2022-12-31T15:06:29.030Z,14.64
2022-12-31T15:09:08.223Z,14.60
2022-12-31T15:11:46.130Z,14.45
2022-12-31T15:14:33.698Z,14.38
2022-12-31T15:17:10.866Z,14.51
2022-12-31T15:20:16.723Z,14.44
2022-12-31T15:22:47.829Z,14.43
2022-12-31T15:25:33.883Z,14.50
2022-12-31T15:28:06.449Z,14.49
2022-12-31T15:30:37.629Z,14.45
2022-12-31T15:33:08.666Z,14.41
2022-12-31T15:35:47.967Z,14.52
2022-12-31T15:38:33.593Z,14.51
2022-12-31T15:41:01.679Z,14.61
2022-12-31T15:43:36.777Z,14.42
2022-12-31T15:46:11.596Z,14.48
2022-12-31T15:48:44.579Z,14.54
2022-12-31T15:51:16.967Z,14.61
2022-12-31T15:53:52.187Z,14.61
2022-12-31T15:56:23.418Z,14.35
2022-12-31T15:58:55.626Z,14.56
2022-12-31T16:01:24.749Z,14.42
2022-12-31T16:03:56.533Z,14.39
2022-12-31T16:06:24.288Z,14.45
2022-12-31T16:08:53.318Z,14.47
2022-12-31T16:11:20.806Z,14.32
2022-12-31T16:13:50.854Z,14.31
2022-12-31T16:16:22.317Z,14.41
2022-12-31T16:18:51.033Z,14.45
2022-12-31T16:21:32.546Z,14.33
2022-12-31T16:24:02.773Z,14.21
2022-12-31T16:26:34.211Z,14.31
2022-12-31T16:29:04.304Z,14.27
2022-12-31T16:31:32.684Z,14.21
2022-12-31T16:34:07.527Z,14.22
2022-12-31T16:36:35.412Z,14.27
2022-12-31T16:39:25.888Z,14.31
2022-12-31T16:41:54.307Z,14.24
2022-12-31T16:44:26.444Z,14.20
2022-12-31T16:46:57.074Z,14.12
2022-12-31T16:49:25.033Z,14.09
2022-12-31T16:51:52.933Z,14.18
2022-12-31T16:54:21.934Z,14.26
2022-12-31T16:56:51.110Z,14.16
2022-12-31T16:59:24.167Z,14.09
2022-12-31T17:01:52.590Z,14.29
2022-12-31T17:04:21.652Z,14.12
2022-12-31T17:06:49.268Z,14.07
2022-12-31T17:09:20.843Z,14.04
2022-12-31T17:11:53.882Z,14.01
2022-12-31T17:14:23.963Z,13.95
2022-12-31T17:17:03.108Z,13.96
2022-12-31T17:19:42.519Z,13.95
2022-12-31T17:22:14.403Z,14.08
2022-12-31T17:24:42.607Z,13.99
2022-12-31T17:27:11.716Z,14.01
2022-12-31T17:29:40.420Z,14.00
2022-12-31T17:32:26.634Z,14.06
2022-12-31T17:34:54.282Z,13.98
2022-12-31T17:37:24.472Z,13.92
2022-12-31T17:39:52.764Z,13.95
2022-12-31T17:42:30.189Z,13.88
2022-12-31T17:45:01.011Z,13.88
2022-12-31T17:47:35.179Z,13.85
2022-12-31T17:50:08.539Z,13.79
2022-12-31T17:52:36.448Z,13.81
2022-12-31T17:55:04.197Z,13.87
2022-12-31T17:57:33.076Z,13.78
2022-12-31T18:00:00.557Z,13.77
2022-12-31T18:02:28.182Z,13.78
2022-12-31T18:04:55.933Z,13.72
2022-12-31T18:07:23.432Z,13.70
2022-12-31T18:09:50.931Z,13.74
2022-12-31T18:12:18.564Z,13.63
2022-12-31T18:14:47.352Z,13.65
2022-12-31T18:17:16.221Z,13.66
2022-12-31T18:20:04.163Z,13.60
2022-12-31T18:22:31.572Z,13.55
2022-12-31T18:24:59.266Z,13.59
2022-12-31T18:27:26.782Z,13.68
2022-12-31T18:30:00.556Z,13.61
2022-12-31T18:32:32.846Z,13.70
2022-12-31T18:35:00.353Z,13.70
2022-12-31T18:37:29.492Z,13.57
2022-12-31T18:39:56.948Z,13.59
2022-12-31T18:42:26.761Z,13.52
2022-12-31T18:44:55.903Z,13.52
2022-12-31T18:47:24.013Z,13.43
2022-12-31T18:49:51.542Z,13.56
2022-12-31T18:52:21.252Z,13.58
2022-12-31T18:54:48.960Z,13.47
2022-12-31T18:57:17.065Z,13.36
2022-12-31T18:59:44.544Z,13.60
2022-12-31T19:02:16.679Z,13.46
2022-12-31T19:04:44.252Z,13.54
2022-12-31T19:07:11.777Z,13.54
2022-12-31T19:09:49.116Z,13.42
2022-12-31T19:12:19.076Z,13.54
2022-12-31T19:14:46.605Z,13.48
2022-12-31T19:17:15.604Z,13.36
2022-12-31T19:19:43.155Z,13.40
2022-12-31T19:22:14.682Z,13.38
2022-12-31T19:24:42.236Z,13.29
2022-12-31T19:27:11.123Z,13.36
2022-12-31T19:29:38.782Z,13.36
2022-12-31T19:32:07.063Z,13.41
2022-12-31T19:34:36.040Z,13.44
2022-12-31T19:37:03.542Z,13.31
2022-12-31T19:39:31.024Z,13.30
2022-12-31T19:41:59.687Z,13.32
2022-12-31T19:44:27.556Z,13.17
2022-12-31T19:46:55.233Z,13.32
2022-12-31T19:49:22.957Z,13.36
2022-12-31T19:51:51.894Z,13.37
2022-12-31T19:54:19.401Z,13.48
2022-12-31T19:56:47.103Z,13.42
2022-12-31T19:59:14.581Z,13.25
2022-12-31T20:01:42.157Z,13.40
2022-12-31T20:04:10.013Z,13.44
2022-12-31T20:06:37.538Z,13.28
2022-12-31T20:09:06.790Z,13.32
2022-12-31T20:11:34.677Z,13.15
2022-12-31T20:14:02.308Z,13.44
2022-12-31T20:16:31.735Z,13.24
2022-12-31T20:18:59.472Z,13.28
2022-12-31T20:21:28.842Z,13.30
2022-12-31T20:23:56.649Z,13.25
2022-12-31T20:26:27.519Z,13.35
2022-12-31T20:28:55.014Z,13.37
2022-12-31T20:31:27.141Z,13.29
2022-12-31T20:33:54.892Z,13.31
2022-12-31T20:36:23.562Z,13.29
2022-12-31T20:38:51.391Z,13.30
2022-12-31T20:41:20.526Z,13.29
2022-12-31T20:43:49.712Z,13.31
2022-12-31T20:46:20.307Z,13.20
2022-12-31T20:48:49.247Z,13.25
2022-12-31T20:51:18.380Z,13.21
2022-12-31T20:53:47.832Z,13.23
2022-12-31T20:56:15.512Z,13.14
2022-12-31T20:58:43.001Z,13.23
2022-12-31T21:01:12.426Z,13.35
2022-12-31T21:06:29.763Z,13.09
2022-12-31T21:08:57.921Z,13.14
2022-12-31T21:11:43.291Z,13.05
2022-12-31T21:14:10.899Z,13.07
2022-12-31T21:16:39.927Z,13.04
2022-12-31T21:19:07.526Z,13.02
2022-12-31T21:21:35.047Z,13.06
2022-12-31T21:24:02.702Z,13.13
2022-12-31T21:26:30.557Z,13.00
2022-12-31T21:28:58.151Z,13.08
2022-12-31T21:31:25.728Z,12.97
2022-12-31T21:33:54.590Z,12.89
2022-12-31T21:36:22.106Z,13.00
2022-12-31T21:38:49.697Z,13.11
2022-12-31T21:41:33.641Z,12.91
2022-12-31T21:44:03.162Z,13.01
2022-12-31T21:46:31.034Z,13.00
2022-12-31T21:49:00.884Z,13.06
2022-12-31T21:51:28.784Z,13.08
2022-12-31T21:53:56.298Z,13.03
2022-12-31T21:56:22.985Z,12.99
2022-12-31T21:59:15.219Z,12.85
2022-12-31T22:02:06.021Z,12.93
2022-12-31T22:05:01.405Z,12.93
2022-12-31T22:07:22.577Z,12.96
2022-12-31T22:09:50.069Z,13.03
2022-12-31T22:12:17.590Z,12.96
2022-12-31T22:15:14.992Z,12.87
2022-12-31T22:17:32.569Z,12.94
2022-12-31T22:20:25.674Z,12.93
2022-12-31T22:22:48.923Z,12.94
2022-12-31T22:25:16.685Z,12.88
2022-12-31T22:27:58.372Z,12.92
2022-12-31T22:30:32.153Z,13.07
2022-12-31T22:32:59.667Z,12.96
2022-12-31T22:35:28.492Z,13.04
2022-12-31T22:37:58.479Z,12.96
2022-12-31T22:40:29.237Z,12.92
2022-12-31T22:42:56.771Z,12.76
2022-12-31T22:45:24.325Z,12.93
2022-12-31T22:47:52.003Z,12.98
2022-12-31T22:50:19.766Z,12.74
2022-12-31T22:52:49.594Z,12.84
2022-12-31T22:55:17.180Z,12.99
2022-12-31T22:57:44.664Z,12.99
2022-12-31T23:00:14.401Z,12.95
2022-12-31T23:02:43.147Z,12.87
2022-12-31T23:05:15.490Z,12.99
2022-12-31T23:07:44.207Z,12.93
2022-12-31T23:10:30.790Z,12.95
2022-12-31T23:13:19.390Z,13.08
2022-12-31T23:16:04.596Z,13.03
2022-12-31T23:18:50.041Z,13.08
2022-12-31T23:21:35.314Z,13.20
2022-12-31T23:24:04.440Z,13.15
2022-12-31T23:26:33.325Z,13.11
2022-12-31T23:29:02.133Z,13.10
2022-12-31T23:31:30.602Z,13.13
2022-12-31T23:33:58.299Z,13.01
2022-12-31T23:36:25.821Z,13.10
2022-12-31T23:38:54.935Z,13.08
2022-12-31T23:41:25.725Z,13.04
2022-12-31T23:43:54.522Z,13.00
2022-12-31T23:46:22.303Z,13.05
2022-12-31T23:48:49.833Z,12.98
2022-12-31T23:51:17.349Z,12.97
2022-12-31T23:53:44.888Z,12.94
2022-12-31T23:56:22.797Z,12.92
2022-12-31T23:58:55.894Z,13.11
